Flugplatz Bischofsberg (UL)

Hier findest Du alle Informationen zum Flugplatz Bischofsberg (UL).

Informationen für Piloten zum Flugplatz Bischofsberg

Hier findest Du alle relevanten Informationen, die Du als Pilot benötigst, um Bischofsberg anzufliegen.

Flugplatz: Bischofsberg ICAO-Code: UL Flugplatz
Frequenz Turm: 123.35 Mhz GAFOR Gebiet: 47
Frequenz Ground: 123.35 Mhz Mogas: ja
Platzrunde: N 0 ft Landegebühr: 3,00 €
Platzhöhe: - Sunrise: 04:57 Uhr UTC
Pisten: 08/26 - 540 m x 30 m, GRAS Sunset: 17:27 Uhr UTC

Mitglieder, die in Bischofsberg fliegen

Flugwetter am Flugplatz Bischofsberg

Die METAR Information stammen aus EDDE (76.97 km entfernt).

METAR Code:
2021/09/10 20:20
EDDE 102020Z VRB02KT CAVOK 19/15 Q1016

Flugschulen am Flugplatz Bischofsberg

Am Flugplatz Bischofsberg gibt es leider keine Flugschule.

Benachbarte Flugplätze und Flugschulen

Es gibt 14 weitere Flugplätze in einem Umkreis von 50 km um den Flugplatz Bischofsberg.

Jetzt anmelden

Passwort vergessen

Umfrage Archiv

Wie habt Ihr Eure UL-Lizenz erworben?

Ausbildung als Fußgänger
68.4 %
Umschulung von Motorflug
15.8 %
Umschulung von Segelflug
15.8 %
Umschulung von Helikopter
0 %
Stimmen: 76 | Diskussion
Anzeige: Roland Aircraft
Statistik Alle Mitglieder

Aktuell sind 58 Besucher online, davon 1 Mitglied und 57 Gäste.


Mitglieder online:
Eric 

Anzeige: VFR Sprechfunk Simulator Anzeige: Pocket FMS